sensor_id;sensor_type;location;lat;lon;timestamp;P1;durP1;ratioP1;P2;durP2;ratioP2
65162;SDS011;51751;55.714;37.436;2023-07-13T00:01:52;4.25;;;2.08;;
65162;SDS011;51751;55.714;37.436;2023-07-13T00:04:19;5.50;;;2.30;;
65162;SDS011;51751;55.714;37.436;2023-07-13T00:06:47;5.60;;;2.38;;
65162;SDS011;51751;55.714;37.436;2023-07-13T00:09:16;4.10;;;2.10;;
65162;SDS011;51751;55.714;37.436;2023-07-13T00:11:43;4.97;;;2.20;;
65162;SDS011;51751;55.714;37.436;2023-07-13T00:14:10;5.15;;;2.15;;
65162;SDS011;51751;55.714;37.436;2023-07-13T00:16:37;4.70;;;1.85;;
65162;SDS011;51751;55.714;37.436;2023-07-13T00:19:04;2.10;;;1.90;;
65162;SDS011;51751;55.714;37.436;2023-07-13T00:21:30;6.63;;;2.00;;
65162;SDS011;51751;55.714;37.436;2023-07-13T00:23:57;4.93;;;1.90;;
65162;SDS011;51751;55.714;37.436;2023-07-13T00:26:23;2.75;;;1.90;;
65162;SDS011;51751;55.714;37.436;2023-07-13T00:28:49;3.35;;;2.00;;
65162;SDS011;51751;55.714;37.436;2023-07-13T00:31:15;1.92;;;1.70;;
65162;SDS011;51751;55.714;37.436;2023-07-13T00:33:41;5.13;;;2.00;;
65162;SDS011;51751;55.714;37.436;2023-07-13T00:36:08;2.42;;;1.88;;
65162;SDS011;51751;55.714;37.436;2023-07-13T00:38:34;2.00;;;1.80;;
65162;SDS011;51751;55.714;37.436;2023-07-13T00:41:01;3.13;;;2.00;;
65162;SDS011;51751;55.714;37.436;2023-07-13T00:43:29;2.88;;;2.17;;
65162;SDS011;51751;55.714;37.436;2023-07-13T00:48:29;3.80;;;1.90;;
65162;SDS011;51751;55.714;37.436;2023-07-13T00:50:58;3.40;;;1.98;;
65162;SDS011;51751;55.714;37.436;2023-07-13T00:53:26;3.30;;;1.92;;
65162;SDS011;51751;55.714;37.436;2023-07-13T00:55:53;5.03;;;2.28;;
65162;SDS011;51751;55.714;37.436;2023-07-13T00:58:19;3.83;;;2.30;;
65162;SDS011;51751;55.714;37.436;2023-07-13T01:03:40;3.53;;;1.98;;
65162;SDS011;51751;55.714;37.436;2023-07-13T01:06:07;4.10;;;2.00;;
65162;SDS011;51751;55.714;37.436;2023-07-13T01:08:34;2.33;;;2.05;;
65162;SDS011;51751;55.714;37.436;2023-07-13T01:11:00;2.33;;;2.08;;
65162;SDS011;51751;55.714;37.436;2023-07-13T01:13:26;3.78;;;2.42;;
65162;SDS011;51751;55.714;37.436;2023-07-13T01:15:56;3.50;;;2.00;;
65162;SDS011;51751;55.714;37.436;2023-07-13T01:18:27;3.08;;;2.13;;
65162;SDS011;51751;55.714;37.436;2023-07-13T01:20:56;3.65;;;2.10;;
65162;SDS011;51751;55.714;37.436;2023-07-13T01:23:26;4.63;;;2.15;;
65162;SDS011;51751;55.714;37.436;2023-07-13T01:25:54;2.85;;;2.00;;
65162;SDS011;51751;55.714;37.436;2023-07-13T01:28:21;4.05;;;2.10;;
65162;SDS011;51751;55.714;37.436;2023-07-13T01:30:51;3.47;;;2.35;;
65162;SDS011;51751;55.714;37.436;2023-07-13T01:33:17;3.95;;;2.20;;
65162;SDS011;51751;55.714;37.436;2023-07-13T01:35:46;3.33;;;2.15;;
65162;SDS011;51751;55.714;37.436;2023-07-13T01:38:17;2.97;;;2.08;;
65162;SDS011;51751;55.714;37.436;2023-07-13T01:40:44;6.82;;;2.30;;
65162;SDS011;51751;55.714;37.436;2023-07-13T01:43:10;3.35;;;2.10;;
65162;SDS011;51751;55.714;37.436;2023-07-13T01:45:38;3.95;;;2.40;;
65162;SDS011;51751;55.714;37.436;2023-07-13T01:48:04;4.55;;;2.00;;
65162;SDS011;51751;55.714;37.436;2023-07-13T01:50:35;4.82;;;2.13;;
65162;SDS011;51751;55.714;37.436;2023-07-13T01:53:02;3.70;;;2.17;;
65162;SDS011;51751;55.714;37.436;2023-07-13T01:55:36;3.92;;;2.15;;
65162;SDS011;51751;55.714;37.436;2023-07-13T01:58:03;3.95;;;2.35;;
65162;SDS011;51751;55.714;37.436;2023-07-13T02:00:29;3.10;;;2.20;;
65162;SDS011;51751;55.714;37.436;2023-07-13T02:02:55;6.32;;;2.30;;
65162;SDS011;51751;55.714;37.436;2023-07-13T02:05:21;6.03;;;2.30;;
65162;SDS011;51751;55.714;37.436;2023-07-13T02:07:47;9.15;;;2.33;;
65162;SDS011;51751;55.714;37.436;2023-07-13T02:10:14;5.35;;;2.28;;
65162;SDS011;51751;55.714;37.436;2023-07-13T02:12:44;8.45;;;2.72;;
65162;SDS011;51751;55.714;37.436;2023-07-13T02:15:11;5.13;;;2.33;;
65162;SDS011;51751;55.714;37.436;2023-07-13T02:17:40;5.72;;;2.50;;
65162;SDS011;51751;55.714;37.436;2023-07-13T02:20:09;7.00;;;2.28;;
65162;SDS011;51751;55.714;37.436;2023-07-13T02:22:35;4.40;;;2.50;;
65162;SDS011;51751;55.714;37.436;2023-07-13T02:25:01;4.07;;;2.45;;
65162;SDS011;51751;55.714;37.436;2023-07-13T02:27:30;6.45;;;2.40;;
65162;SDS011;51751;55.714;37.436;2023-07-13T02:29:56;3.22;;;2.10;;
65162;SDS011;51751;55.714;37.436;2023-07-13T02:32:22;11.80;;;2.42;;
65162;SDS011;51751;55.714;37.436;2023-07-13T02:34:51;6.15;;;2.50;;
65162;SDS011;51751;55.714;37.436;2023-07-13T02:37:23;5.00;;;2.50;;
65162;SDS011;51751;55.714;37.436;2023-07-13T02:39:49;5.50;;;2.50;;
65162;SDS011;51751;55.714;37.436;2023-07-13T02:42:15;7.38;;;2.38;;
65162;SDS011;51751;55.714;37.436;2023-07-13T02:44:42;5.43;;;2.70;;
65162;SDS011;51751;55.714;37.436;2023-07-13T02:47:08;8.15;;;2.50;;
65162;SDS011;51751;55.714;37.436;2023-07-13T02:49:33;7.90;;;2.80;;
65162;SDS011;51751;55.714;37.436;2023-07-13T02:51:59;3.50;;;2.17;;
65162;SDS011;51751;55.714;37.436;2023-07-13T02:54:26;6.65;;;2.40;;
65162;SDS011;51751;55.714;37.436;2023-07-13T02:56:52;7.70;;;2.85;;
65162;SDS011;51751;55.714;37.436;2023-07-13T02:59:18;5.18;;;2.40;;
65162;SDS011;51751;55.714;37.436;2023-07-13T03:01:45;7.63;;;2.30;;
65162;SDS011;51751;55.714;37.436;2023-07-13T03:04:13;6.05;;;2.72;;
65162;SDS011;51751;55.714;37.436;2023-07-13T03:06:40;7.40;;;2.72;;
65162;SDS011;51751;55.714;37.436;2023-07-13T03:09:06;6.15;;;2.67;;
65162;SDS011;51751;55.714;37.436;2023-07-13T03:11:35;6.57;;;2.80;;
65162;SDS011;51751;55.714;37.436;2023-07-13T03:14:22;3.47;;;2.30;;
65162;SDS011;51751;55.714;37.436;2023-07-13T03:16:48;8.40;;;2.63;;
65162;SDS011;51751;55.714;37.436;2023-07-13T03:19:27;3.88;;;2.42;;
65162;SDS011;51751;55.714;37.436;2023-07-13T03:21:54;4.10;;;2.40;;
65162;SDS011;51751;55.714;37.436;2023-07-13T03:24:23;4.15;;;2.85;;
65162;SDS011;51751;55.714;37.436;2023-07-13T03:26:56;4.65;;;2.63;;
65162;SDS011;51751;55.714;37.436;2023-07-13T03:29:22;8.38;;;2.40;;
65162;SDS011;51751;55.714;37.436;2023-07-13T03:31:57;4.18;;;2.40;;
65162;SDS011;51751;55.714;37.436;2023-07-13T03:34:27;9.15;;;2.60;;
65162;SDS011;51751;55.714;37.436;2023-07-13T03:36:56;11.25;;;2.50;;
65162;SDS011;51751;55.714;37.436;2023-07-13T03:39:22;3.90;;;2.45;;
65162;SDS011;51751;55.714;37.436;2023-07-13T03:41:54;5.13;;;2.50;;
65162;SDS011;51751;55.714;37.436;2023-07-13T03:44:20;6.03;;;2.50;;
65162;SDS011;51751;55.714;37.436;2023-07-13T03:47:02;2.92;;;2.13;;
65162;SDS011;51751;55.714;37.436;2023-07-13T03:49:28;4.03;;;2.00;;
65162;SDS011;51751;55.714;37.436;2023-07-13T03:51:54;7.75;;;2.47;;
65162;SDS011;51751;55.714;37.436;2023-07-13T03:54:20;6.85;;;2.58;;
65162;SDS011;51751;55.714;37.436;2023-07-13T03:56:46;5.15;;;2.28;;
65162;SDS011;51751;55.714;37.436;2023-07-13T03:59:12;3.67;;;2.25;;
65162;SDS011;51751;55.714;37.436;2023-07-13T04:01:42;4.85;;;2.13;;
65162;SDS011;51751;55.714;37.436;2023-07-13T04:04:11;5.65;;;2.20;;
65162;SDS011;51751;55.714;37.436;2023-07-13T04:06:37;4.13;;;2.10;;
65162;SDS011;51751;55.714;37.436;2023-07-13T04:09:03;6.53;;;2.10;;
65162;SDS011;51751;55.714;37.436;2023-07-13T04:11:33;5.25;;;1.80;;
65162;SDS011;51751;55.714;37.436;2023-07-13T04:14:04;4.22;;;2.47;;
65162;SDS011;51751;55.714;37.436;2023-07-13T04:16:30;4.15;;;1.92;;
65162;SDS011;51751;55.714;37.436;2023-07-13T04:18:56;5.13;;;2.20;;
65162;SDS011;51751;55.714;37.436;2023-07-13T04:21:26;6.63;;;2.28;;
65162;SDS011;51751;55.714;37.436;2023-07-13T04:23:53;8.50;;;2.67;;
65162;SDS011;51751;55.714;37.436;2023-07-13T04:26:19;3.88;;;2.08;;
65162;SDS011;51751;55.714;37.436;2023-07-13T04:28:48;5.80;;;2.17;;
65162;SDS011;51751;55.714;37.436;2023-07-13T04:31:15;6.65;;;2.30;;
65162;SDS011;51751;55.714;37.436;2023-07-13T04:33:42;5.20;;;2.33;;
65162;SDS011;51751;55.714;37.436;2023-07-13T04:36:09;4.38;;;2.00;;
65162;SDS011;51751;55.714;37.436;2023-07-13T04:38:37;5.68;;;2.30;;
65162;SDS011;51751;55.714;37.436;2023-07-13T04:41:05;6.00;;;2.22;;
65162;SDS011;51751;55.714;37.436;2023-07-13T04:43:33;4.15;;;2.15;;
65162;SDS011;51751;55.714;37.436;2023-07-13T04:46:09;4.27;;;2.10;;
65162;SDS011;51751;55.714;37.436;2023-07-13T04:48:37;6.25;;;2.10;;
65162;SDS011;51751;55.714;37.436;2023-07-13T04:51:02;6.75;;;2.08;;
65162;SDS011;51751;55.714;37.436;2023-07-13T04:53:32;6.38;;;2.08;;
65162;SDS011;51751;55.714;37.436;2023-07-13T04:56:00;8.05;;;2.85;;
65162;SDS011;51751;55.714;37.436;2023-07-13T04:58:27;12.07;;;2.35;;
65162;SDS011;51751;55.714;37.436;2023-07-13T05:00:53;3.50;;;2.10;;
65162;SDS011;51751;55.714;37.436;2023-07-13T05:03:21;3.47;;;1.85;;
65162;SDS011;51751;55.714;37.436;2023-07-13T05:05:57;6.95;;;2.35;;
65162;SDS011;51751;55.714;37.436;2023-07-13T05:08:24;5.55;;;2.58;;
65162;SDS011;51751;55.714;37.436;2023-07-13T05:10:51;9.07;;;1.95;;
65162;SDS011;51751;55.714;37.436;2023-07-13T05:13:17;6.45;;;2.40;;
65162;SDS011;51751;55.714;37.436;2023-07-13T05:15:47;8.32;;;2.35;;
65162;SDS011;51751;55.714;37.436;2023-07-13T05:18:23;7.05;;;2.17;;
65162;SDS011;51751;55.714;37.436;2023-07-13T05:21:03;12.93;;;2.58;;
65162;SDS011;51751;55.714;37.436;2023-07-13T05:23:31;5.25;;;2.70;;
65162;SDS011;51751;55.714;37.436;2023-07-13T05:25:57;7.18;;;2.80;;
65162;SDS011;51751;55.714;37.436;2023-07-13T05:28:23;8.60;;;2.50;;
65162;SDS011;51751;55.714;37.436;2023-07-13T05:30:51;10.00;;;2.47;;
65162;SDS011;51751;55.714;37.436;2023-07-13T05:33:17;6.25;;;2.38;;
65162;SDS011;51751;55.714;37.436;2023-07-13T05:35:43;6.15;;;2.50;;
65162;SDS011;51751;55.714;37.436;2023-07-13T05:38:09;6.38;;;2.25;;
65162;SDS011;51751;55.714;37.436;2023-07-13T05:40:35;4.50;;;1.83;;
65162;SDS011;51751;55.714;37.436;2023-07-13T05:43:01;3.20;;;2.20;;
65162;SDS011;51751;55.714;37.436;2023-07-13T05:45:33;5.22;;;1.98;;
65162;SDS011;51751;55.714;37.436;2023-07-13T05:47:59;8.50;;;2.05;;
65162;SDS011;51751;55.714;37.436;2023-07-13T05:50:26;11.02;;;1.90;;
65162;SDS011;51751;55.714;37.436;2023-07-13T05:52:52;5.88;;;2.20;;
65162;SDS011;51751;55.714;37.436;2023-07-13T05:55:19;5.97;;;2.42;;
65162;SDS011;51751;55.714;37.436;2023-07-13T05:57:45;5.15;;;2.10;;
65162;SDS011;51751;55.714;37.436;2023-07-13T06:00:11;4.63;;;1.92;;
65162;SDS011;51751;55.714;37.436;2023-07-13T06:02:38;6.32;;;2.00;;
65162;SDS011;51751;55.714;37.436;2023-07-13T06:05:06;3.03;;;1.88;;
65162;SDS011;51751;55.714;37.436;2023-07-13T06:07:33;6.30;;;2.10;;
65162;SDS011;51751;55.714;37.436;2023-07-13T06:09:58;5.22;;;1.85;;
65162;SDS011;51751;55.714;37.436;2023-07-13T06:12:25;8.75;;;1.98;;
65162;SDS011;51751;55.714;37.436;2023-07-13T06:14:52;5.82;;;2.10;;
65162;SDS011;51751;55.714;37.436;2023-07-13T06:17:18;5.80;;;2.20;;
65162;SDS011;51751;55.714;37.436;2023-07-13T06:19:44;11.57;;;2.85;;
65162;SDS011;51751;55.714;37.436;2023-07-13T06:22:12;3.00;;;2.00;;
65162;SDS011;51751;55.714;37.436;2023-07-13T06:24:41;5.93;;;2.08;;
65162;SDS011;51751;55.714;37.436;2023-07-13T06:27:07;11.32;;;2.13;;
65162;SDS011;51751;55.714;37.436;2023-07-13T06:29:33;6.35;;;1.75;;
65162;SDS011;51751;55.714;37.436;2023-07-13T06:31:59;14.27;;;2.53;;
65162;SDS011;51751;55.714;37.436;2023-07-13T06:34:29;4.30;;;2.25;;
65162;SDS011;51751;55.714;37.436;2023-07-13T06:36:55;5.15;;;1.70;;
65162;SDS011;51751;55.714;37.436;2023-07-13T06:39:21;11.13;;;2.10;;
65162;SDS011;51751;55.714;37.436;2023-07-13T06:41:50;7.80;;;1.85;;
65162;SDS011;51751;55.714;37.436;2023-07-13T06:44:17;5.45;;;1.83;;
65162;SDS011;51751;55.714;37.436;2023-07-13T06:46:43;4.32;;;2.00;;
65162;SDS011;51751;55.714;37.436;2023-07-13T06:49:09;7.75;;;2.65;;
65162;SDS011;51751;55.714;37.436;2023-07-13T06:51:35;6.78;;;2.08;;
65162;SDS011;51751;55.714;37.436;2023-07-13T06:54:01;3.42;;;1.67;;
65162;SDS011;51751;55.714;37.436;2023-07-13T06:56:27;7.13;;;2.10;;
65162;SDS011;51751;55.714;37.436;2023-07-13T06:58:58;2.95;;;1.70;;
65162;SDS011;51751;55.714;37.436;2023-07-13T07:01:24;6.75;;;2.25;;
65162;SDS011;51751;55.714;37.436;2023-07-13T07:03:50;4.20;;;1.58;;
65162;SDS011;51751;55.714;37.436;2023-07-13T07:06:18;10.75;;;2.38;;
65162;SDS011;51751;55.714;37.436;2023-07-13T07:08:46;3.10;;;1.83;;
65162;SDS011;51751;55.714;37.436;2023-07-13T07:11:13;6.15;;;2.00;;
65162;SDS011;51751;55.714;37.436;2023-07-13T07:13:43;8.25;;;2.10;;
65162;SDS011;51751;55.714;37.436;2023-07-13T07:16:12;3.70;;;1.92;;
65162;SDS011;51751;55.714;37.436;2023-07-13T07:18:38;11.98;;;2.30;;
65162;SDS011;51751;55.714;37.436;2023-07-13T07:21:04;6.30;;;2.17;;
65162;SDS011;51751;55.714;37.436;2023-07-13T07:23:30;3.50;;;1.90;;
65162;SDS011;51751;55.714;37.436;2023-07-13T07:25:56;6.47;;;2.03;;
65162;SDS011;51751;55.714;37.436;2023-07-13T07:28:27;11.43;;;2.47;;
65162;SDS011;51751;55.714;37.436;2023-07-13T07:30:57;15.35;;;2.80;;
65162;SDS011;51751;55.714;37.436;2023-07-13T07:33:24;8.82;;;2.58;;
65162;SDS011;51751;55.714;37.436;2023-07-13T07:35:51;9.40;;;2.30;;
65162;SDS011;51751;55.714;37.436;2023-07-13T07:38:17;11.57;;;3.13;;
65162;SDS011;51751;55.714;37.436;2023-07-13T07:40:43;4.45;;;2.00;;
65162;SDS011;51751;55.714;37.436;2023-07-13T07:43:12;6.75;;;2.40;;
65162;SDS011;51751;55.714;37.436;2023-07-13T07:45:39;7.80;;;2.50;;
65162;SDS011;51751;55.714;37.436;2023-07-13T07:48:05;7.07;;;2.03;;
65162;SDS011;51751;55.714;37.436;2023-07-13T07:50:32;8.68;;;2.45;;
65162;SDS011;51751;55.714;37.436;2023-07-13T07:52:58;9.40;;;2.42;;
65162;SDS011;51751;55.714;37.436;2023-07-13T07:55:24;23.05;;;8.40;;
65162;SDS011;51751;55.714;37.436;2023-07-13T07:57:57;5.10;;;2.08;;
65162;SDS011;51751;55.714;37.436;2023-07-13T08:00:23;3.88;;;2.22;;
65162;SDS011;51751;55.714;37.436;2023-07-13T08:02:49;10.20;;;2.70;;
65162;SDS011;51751;55.714;37.436;2023-07-13T08:05:14;5.47;;;2.15;;
65162;SDS011;51751;55.714;37.436;2023-07-13T08:07:41;9.40;;;2.20;;
65162;SDS011;51751;55.714;37.436;2023-07-13T08:10:07;7.38;;;2.28;;
65162;SDS011;51751;55.714;37.436;2023-07-13T08:12:33;9.73;;;2.60;;
65162;SDS011;51751;55.714;37.436;2023-07-13T08:15:02;8.00;;;2.53;;
65162;SDS011;51751;55.714;37.436;2023-07-13T08:17:32;5.90;;;2.45;;
65162;SDS011;51751;55.714;37.436;2023-07-13T08:19:59;6.70;;;2.25;;
65162;SDS011;51751;55.714;37.436;2023-07-13T08:22:25;4.95;;;2.17;;
65162;SDS011;51751;55.714;37.436;2023-07-13T08:24:54;23.52;;;3.53;;
65162;SDS011;51751;55.714;37.436;2023-07-13T08:27:23;6.30;;;2.22;;
65162;SDS011;51751;55.714;37.436;2023-07-13T08:29:50;8.98;;;2.10;;
65162;SDS011;51751;55.714;37.436;2023-07-13T08:32:18;6.85;;;2.05;;
65162;SDS011;51751;55.714;37.436;2023-07-13T08:34:45;11.15;;;2.53;;
65162;SDS011;51751;55.714;37.436;2023-07-13T08:37:11;8.35;;;2.40;;
65162;SDS011;51751;55.714;37.436;2023-07-13T08:39:37;17.00;;;2.83;;
65162;SDS011;51751;55.714;37.436;2023-07-13T08:45:47;6.65;;;2.80;;
65162;SDS011;51751;55.714;37.436;2023-07-13T08:48:43;10.63;;;3.08;;
65162;SDS011;51751;55.714;37.436;2023-07-13T08:50:51;12.68;;;3.15;;
65162;SDS011;51751;55.714;37.436;2023-07-13T08:53:51;4.53;;;2.60;;
65162;SDS011;51751;55.714;37.436;2023-07-13T08:56:21;12.32;;;2.60;;
65162;SDS011;51751;55.714;37.436;2023-07-13T08:58:52;6.70;;;2.10;;
65162;SDS011;51751;55.714;37.436;2023-07-13T09:06:23;7.85;;;3.08;;
65162;SDS011;51751;55.714;37.436;2023-07-13T09:08:58;8.55;;;2.80;;
65162;SDS011;51751;55.714;37.436;2023-07-13T09:16:39;12.43;;;3.23;;
65162;SDS011;51751;55.714;37.436;2023-07-13T09:19:06;6.55;;;2.40;;
65162;SDS011;51751;55.714;37.436;2023-07-13T09:21:33;7.75;;;2.45;;
65162;SDS011;51751;55.714;37.436;2023-07-13T09:24:24;7.00;;;3.30;;
65162;SDS011;51751;55.714;37.436;2023-07-13T09:26:55;6.50;;;3.20;;
65162;SDS011;51751;55.714;37.436;2023-07-13T09:29:33;10.50;;;3.10;;
65162;SDS011;51751;55.714;37.436;2023-07-13T09:32:21;9.20;;;3.10;;
65162;SDS011;51751;55.714;37.436;2023-07-13T09:34:53;9.73;;;3.15;;
65162;SDS011;51751;55.714;37.436;2023-07-13T09:37:20;6.78;;;3.00;;
65162;SDS011;51751;55.714;37.436;2023-07-13T09:39:47;10.40;;;3.05;;
65162;SDS011;51751;55.714;37.436;2023-07-13T09:42:16;6.72;;;2.70;;
65162;SDS011;51751;55.714;37.436;2023-07-13T09:44:56;8.90;;;3.22;;
65162;SDS011;51751;55.714;37.436;2023-07-13T09:47:33;4.82;;;2.22;;
65162;SDS011;51751;55.714;37.436;2023-07-13T09:50:09;4.15;;;2.80;;
65162;SDS011;51751;55.714;37.436;2023-07-13T09:52:43;4.95;;;2.78;;
65162;SDS011;51751;55.714;37.436;2023-07-13T09:55:26;8.15;;;2.60;;
65162;SDS011;51751;55.714;37.436;2023-07-13T09:57:57;4.78;;;2.65;;
65162;SDS011;51751;55.714;37.436;2023-07-13T10:00:27;3.75;;;2.70;;
65162;SDS011;51751;55.714;37.436;2023-07-13T10:02:58;6.95;;;2.70;;
65162;SDS011;51751;55.714;37.436;2023-07-13T10:05:25;3.45;;;2.55;;
65162;SDS011;51751;55.714;37.436;2023-07-13T10:07:51;4.45;;;2.67;;
65162;SDS011;51751;55.714;37.436;2023-07-13T10:10:22;2.92;;;2.40;;
65162;SDS011;51751;55.714;37.436;2023-07-13T10:12:49;6.32;;;2.90;;
65162;SDS011;51751;55.714;37.436;2023-07-13T10:15:22;5.07;;;2.95;;
65162;SDS011;51751;55.714;37.436;2023-07-13T10:17:51;3.80;;;2.60;;
65162;SDS011;51751;55.714;37.436;2023-07-13T10:20:18;5.40;;;2.30;;
65162;SDS011;51751;55.714;37.436;2023-07-13T10:22:50;6.18;;;2.78;;
65162;SDS011;51751;55.714;37.436;2023-07-13T10:25:24;4.30;;;2.70;;
65162;SDS011;51751;55.714;37.436;2023-07-13T10:27:52;6.90;;;2.80;;
65162;SDS011;51751;55.714;37.436;2023-07-13T10:30:35;4.65;;;2.90;;
65162;SDS011;51751;55.714;37.436;2023-07-13T10:33:10;5.78;;;2.60;;
65162;SDS011;51751;55.714;37.436;2023-07-13T10:35:36;5.43;;;2.78;;
65162;SDS011;51751;55.714;37.436;2023-07-13T10:38:10;4.00;;;2.67;;
65162;SDS011;51751;55.714;37.436;2023-07-13T10:41:01;4.40;;;2.33;;
65162;SDS011;51751;55.714;37.436;2023-07-13T10:44:02;4.63;;;2.70;;
65162;SDS011;51751;55.714;37.436;2023-07-13T10:46:23;7.20;;;2.80;;
65162;SDS011;51751;55.714;37.436;2023-07-13T10:49:02;7.65;;;2.80;;
65162;SDS011;51751;55.714;37.436;2023-07-13T10:51:30;9.48;;;2.90;;
65162;SDS011;51751;55.714;37.436;2023-07-13T10:56:43;4.10;;;2.47;;
65162;SDS011;51751;55.714;37.436;2023-07-13T10:59:15;4.43;;;2.85;;
65162;SDS011;51751;55.714;37.436;2023-07-13T11:01:51;4.72;;;2.65;;
65162;SDS011;51751;55.714;37.436;2023-07-13T11:04:29;3.38;;;2.42;;
65162;SDS011;51751;55.714;37.436;2023-07-13T11:06:59;4.15;;;2.63;;
65162;SDS011;51751;55.714;37.436;2023-07-13T11:09:37;7.78;;;2.60;;
65162;SDS011;51751;55.714;37.436;2023-07-13T11:12:25;5.78;;;2.35;;
65162;SDS011;51751;55.714;37.436;2023-07-13T11:17:50;4.07;;;2.42;;
65162;SDS011;51751;55.714;37.436;2023-07-13T11:20:33;11.15;;;2.60;;
65162;SDS011;51751;55.714;37.436;2023-07-13T11:25:43;5.60;;;2.55;;
65162;SDS011;51751;55.714;37.436;2023-07-13T11:33:15;8.15;;;3.33;;
65162;SDS011;51751;55.714;37.436;2023-07-13T11:38:20;7.53;;;2.78;;
65162;SDS011;51751;55.714;37.436;2023-07-13T11:40:54;9.55;;;3.60;;
65162;SDS011;51751;55.714;37.436;2023-07-13T11:43:22;10.00;;;3.47;;
65162;SDS011;51751;55.714;37.436;2023-07-13T11:45:49;16.05;;;4.03;;
65162;SDS011;51751;55.714;37.436;2023-07-13T11:48:19;11.23;;;3.67;;
65162;SDS011;51751;55.714;37.436;2023-07-13T11:53:18;7.85;;;4.00;;
65162;SDS011;51751;55.714;37.436;2023-07-13T11:55:44;11.48;;;3.65;;
65162;SDS011;51751;55.714;37.436;2023-07-13T11:58:13;7.13;;;3.95;;
65162;SDS011;51751;55.714;37.436;2023-07-13T12:00:40;6.20;;;3.58;;
65162;SDS011;51751;55.714;37.436;2023-07-13T12:03:10;9.38;;;3.75;;
65162;SDS011;51751;55.714;37.436;2023-07-13T12:05:37;9.05;;;3.70;;
65162;SDS011;51751;55.714;37.436;2023-07-13T12:08:08;6.07;;;3.30;;
65162;SDS011;51751;55.714;37.436;2023-07-13T12:10:36;7.63;;;3.22;;
65162;SDS011;51751;55.714;37.436;2023-07-13T12:13:04;10.65;;;3.33;;
65162;SDS011;51751;55.714;37.436;2023-07-13T12:15:41;9.18;;;3.80;;
65162;SDS011;51751;55.714;37.436;2023-07-13T12:18:15;5.18;;;2.67;;
65162;SDS011;51751;55.714;37.436;2023-07-13T12:20:44;8.00;;;3.42;;
65162;SDS011;51751;55.714;37.436;2023-07-13T12:23:22;9.82;;;2.95;;
65162;SDS011;51751;55.714;37.436;2023-07-13T12:25:53;17.73;;;3.45;;
65162;SDS011;51751;55.714;37.436;2023-07-13T12:28:19;9.43;;;3.00;;
65162;SDS011;51751;55.714;37.436;2023-07-13T12:30:47;11.10;;;2.92;;
65162;SDS011;51751;55.714;37.436;2023-07-13T12:33:13;7.70;;;2.53;;
65162;SDS011;51751;55.714;37.436;2023-07-13T12:35:40;7.55;;;2.50;;
65162;SDS011;51751;55.714;37.436;2023-07-13T12:38:10;6.97;;;3.00;;
65162;SDS011;51751;55.714;37.436;2023-07-13T12:40:36;10.10;;;3.30;;
65162;SDS011;51751;55.714;37.436;2023-07-13T12:43:03;10.02;;;3.00;;
65162;SDS011;51751;55.714;37.436;2023-07-13T12:45:32;4.68;;;2.90;;
65162;SDS011;51751;55.714;37.436;2023-07-13T12:48:05;4.72;;;2.80;;
65162;SDS011;51751;55.714;37.436;2023-07-13T12:50:42;9.80;;;2.60;;
65162;SDS011;51751;55.714;37.436;2023-07-13T12:53:15;10.48;;;3.35;;
65162;SDS011;51751;55.714;37.436;2023-07-13T12:55:46;7.78;;;3.00;;
65162;SDS011;51751;55.714;37.436;2023-07-13T12:58:16;13.07;;;3.35;;
65162;SDS011;51751;55.714;37.436;2023-07-13T13:00:53;8.13;;;2.90;;
65162;SDS011;51751;55.714;37.436;2023-07-13T13:03:22;13.32;;;3.45;;
65162;SDS011;51751;55.714;37.436;2023-07-13T13:06:04;4.72;;;2.53;;
65162;SDS011;51751;55.714;37.436;2023-07-13T13:08:35;11.02;;;4.40;;
65162;SDS011;51751;55.714;37.436;2023-07-13T13:11:01;18.08;;;5.05;;
65162;SDS011;51751;55.714;37.436;2023-07-13T13:13:28;23.10;;;5.68;;
65162;SDS011;51751;55.714;37.436;2023-07-13T13:15:54;18.58;;;5.05;;
65162;SDS011;51751;55.714;37.436;2023-07-13T13:18:21;21.08;;;5.40;;
65162;SDS011;51751;55.714;37.436;2023-07-13T13:20:49;19.52;;;5.38;;
65162;SDS011;51751;55.714;37.436;2023-07-13T13:23:16;11.48;;;4.43;;
65162;SDS011;51751;55.714;37.436;2023-07-13T13:25:53;15.18;;;4.18;;
65162;SDS011;51751;55.714;37.436;2023-07-13T13:28:19;15.18;;;4.95;;
65162;SDS011;51751;55.714;37.436;2023-07-13T13:30:46;11.40;;;4.20;;
65162;SDS011;51751;55.714;37.436;2023-07-13T13:33:15;13.13;;;5.15;;
65162;SDS011;51751;55.714;37.436;2023-07-13T13:35:42;27.38;;;7.05;;
65162;SDS011;51751;55.714;37.436;2023-07-13T13:38:27;12.95;;;4.60;;
65162;SDS011;51751;55.714;37.436;2023-07-13T13:40:54;15.27;;;4.90;;
65162;SDS011;51751;55.714;37.436;2023-07-13T13:43:24;9.77;;;4.50;;
65162;SDS011;51751;55.714;37.436;2023-07-13T13:45:55;9.93;;;4.82;;
65162;SDS011;51751;55.714;37.436;2023-07-13T13:48:33;21.88;;;6.05;;
65162;SDS011;51751;55.714;37.436;2023-07-13T13:51:00;14.55;;;4.57;;
65162;SDS011;51751;55.714;37.436;2023-07-13T13:53:37;21.65;;;5.70;;
65162;SDS011;51751;55.714;37.436;2023-07-13T13:56:04;13.48;;;4.25;;
65162;SDS011;51751;55.714;37.436;2023-07-13T13:58:30;14.48;;;4.88;;
65162;SDS011;51751;55.714;37.436;2023-07-13T14:00:59;11.00;;;4.55;;
65162;SDS011;51751;55.714;37.436;2023-07-13T14:03:31;9.05;;;3.90;;
65162;SDS011;51751;55.714;37.436;2023-07-13T14:05:57;9.23;;;4.25;;
65162;SDS011;51751;55.714;37.436;2023-07-13T14:08:23;12.90;;;4.18;;
65162;SDS011;51751;55.714;37.436;2023-07-13T14:10:51;10.38;;;4.25;;
65162;SDS011;51751;55.714;37.436;2023-07-13T14:13:26;7.35;;;3.50;;
65162;SDS011;51751;55.714;37.436;2023-07-13T14:15:57;12.17;;;4.20;;
65162;SDS011;51751;55.714;37.436;2023-07-13T14:18:28;11.13;;;4.70;;
65162;SDS011;51751;55.714;37.436;2023-07-13T14:20:57;12.38;;;4.53;;
65162;SDS011;51751;55.714;37.436;2023-07-13T14:23:23;7.03;;;3.88;;
65162;SDS011;51751;55.714;37.436;2023-07-13T14:25:49;12.02;;;5.05;;
65162;SDS011;51751;55.714;37.436;2023-07-13T14:30:54;14.43;;;4.07;;
65162;SDS011;51751;55.714;37.436;2023-07-13T14:33:24;12.95;;;3.88;;
65162;SDS011;51751;55.714;37.436;2023-07-13T14:35:52;8.38;;;3.40;;
65162;SDS011;51751;55.714;37.436;2023-07-13T14:38:19;8.10;;;2.83;;
65162;SDS011;51751;55.714;37.436;2023-07-13T14:40:45;5.30;;;2.90;;
65162;SDS011;51751;55.714;37.436;2023-07-13T14:43:15;5.57;;;2.70;;
65162;SDS011;51751;55.714;37.436;2023-07-13T14:46:06;4.78;;;2.60;;
65162;SDS011;51751;55.714;37.436;2023-07-13T14:48:44;5.45;;;2.75;;
65162;SDS011;51751;55.714;37.436;2023-07-13T14:51:10;10.45;;;2.90;;
65162;SDS011;51751;55.714;37.436;2023-07-13T14:53:37;3.75;;;2.40;;
65162;SDS011;51751;55.714;37.436;2023-07-13T14:56:12;4.03;;;2.30;;
65162;SDS011;51751;55.714;37.436;2023-07-13T14:58:40;7.10;;;2.88;;
65162;SDS011;51751;55.714;37.436;2023-07-13T15:01:10;8.43;;;3.08;;
65162;SDS011;51751;55.714;37.436;2023-07-13T15:03:41;9.38;;;3.35;;
65162;SDS011;51751;55.714;37.436;2023-07-13T15:06:10;8.30;;;3.30;;
65162;SDS011;51751;55.714;37.436;2023-07-13T15:08:40;11.07;;;3.50;;
65162;SDS011;51751;55.714;37.436;2023-07-13T15:11:07;6.78;;;3.45;;
65162;SDS011;51751;55.714;37.436;2023-07-13T15:13:33;6.95;;;3.45;;
65162;SDS011;51751;55.714;37.436;2023-07-13T15:16:00;5.65;;;2.90;;
65162;SDS011;51751;55.714;37.436;2023-07-13T15:18:28;5.32;;;2.70;;
65162;SDS011;51751;55.714;37.436;2023-07-13T15:20:54;7.47;;;3.17;;
65162;SDS011;51751;55.714;37.436;2023-07-13T15:23:21;7.45;;;3.20;;